sensor_id;sensor_type;location;lat;lon;timestamp;P1;durP1;ratioP1;P2;durP2;ratioP2
80115;SDS011;69423;47.608;19.366;2023-08-17T00:00:04;16.30;;;16.30;;
80115;SDS011;69423;47.608;19.366;2023-08-17T00:00:39;16.37;;;16.37;;
80115;SDS011;69423;47.608;19.366;2023-08-17T00:01:10;16.03;;;16.03;;
80115;SDS011;69423;47.608;19.366;2023-08-17T00:01:41;16.03;;;16.03;;
80115;SDS011;69423;47.608;19.366;2023-08-17T00:02:12;16.67;;;16.67;;
80115;SDS011;69423;47.608;19.366;2023-08-17T00:02:44;16.93;;;16.93;;
80115;SDS011;69423;47.608;19.366;2023-08-17T00:03:15;17.80;;;17.80;;
80115;SDS011;69423;47.608;19.366;2023-08-17T00:03:46;17.77;;;17.77;;
80115;SDS011;69423;47.608;19.366;2023-08-17T00:04:17;17.43;;;17.43;;
80115;SDS011;69423;47.608;19.366;2023-08-17T00:04:48;17.00;;;17.00;;
80115;SDS011;69423;47.608;19.366;2023-08-17T00:05:19;17.33;;;17.33;;
80115;SDS011;69423;47.608;19.366;2023-08-17T00:05:50;16.67;;;16.67;;
80115;SDS011;69423;47.608;19.366;2023-08-17T00:06:21;17.50;;;17.50;;
80115;SDS011;69423;47.608;19.366;2023-08-17T00:06:52;17.23;;;17.23;;
80115;SDS011;69423;47.608;19.366;2023-08-17T00:07:23;17.23;;;17.23;;
80115;SDS011;69423;47.608;19.366;2023-08-17T00:07:54;17.03;;;17.03;;
80115;SDS011;69423;47.608;19.366;2023-08-17T00:08:25;16.67;;;16.67;;
80115;SDS011;69423;47.608;19.366;2023-08-17T00:08:56;17.00;;;17.00;;
80115;SDS011;69423;47.608;19.366;2023-08-17T00:09:27;17.27;;;17.27;;
80115;SDS011;69423;47.608;19.366;2023-08-17T00:09:58;16.80;;;16.80;;
80115;SDS011;69423;47.608;19.366;2023-08-17T00:10:30;17.40;;;17.40;;
80115;SDS011;69423;47.608;19.366;2023-08-17T00:11:01;16.97;;;16.97;;
80115;SDS011;69423;47.608;19.366;2023-08-17T00:11:32;16.83;;;16.83;;
80115;SDS011;69423;47.608;19.366;2023-08-17T00:12:03;17.23;;;17.23;;
80115;SDS011;69423;47.608;19.366;2023-08-17T00:12:35;17.10;;;17.10;;
80115;SDS011;69423;47.608;19.366;2023-08-17T00:13:06;17.23;;;17.23;;
80115;SDS011;69423;47.608;19.366;2023-08-17T00:13:37;16.57;;;16.57;;
80115;SDS011;69423;47.608;19.366;2023-08-17T00:14:08;16.30;;;16.30;;
80115;SDS011;69423;47.608;19.366;2023-08-17T00:14:40;16.43;;;16.43;;
80115;SDS011;69423;47.608;19.366;2023-08-17T00:15:11;16.87;;;16.87;;
80115;SDS011;69423;47.608;19.366;2023-08-17T00:15:42;16.63;;;16.63;;
80115;SDS011;69423;47.608;19.366;2023-08-17T00:16:15;16.37;;;16.37;;
80115;SDS011;69423;47.608;19.366;2023-08-17T00:16:48;16.73;;;16.73;;
80115;SDS011;69423;47.608;19.366;2023-08-17T00:17:20;16.33;;;16.33;;
80115;SDS011;69423;47.608;19.366;2023-08-17T00:17:52;16.90;;;16.90;;
80115;SDS011;69423;47.608;19.366;2023-08-17T00:18:23;16.67;;;16.67;;
80115;SDS011;69423;47.608;19.366;2023-08-17T00:18:54;17.00;;;17.00;;
80115;SDS011;69423;47.608;19.366;2023-08-17T00:19:25;16.97;;;16.97;;
80115;SDS011;69423;47.608;19.366;2023-08-17T00:19:56;16.97;;;16.97;;
80115;SDS011;69423;47.608;19.366;2023-08-17T00:20:27;16.83;;;16.83;;
80115;SDS011;69423;47.608;19.366;2023-08-17T00:20:58;16.87;;;16.87;;
80115;SDS011;69423;47.608;19.366;2023-08-17T00:21:29;16.40;;;16.40;;
80115;SDS011;69423;47.608;19.366;2023-08-17T00:22:01;16.97;;;16.97;;
80115;SDS011;69423;47.608;19.366;2023-08-17T00:22:32;16.37;;;16.37;;
80115;SDS011;69423;47.608;19.366;2023-08-17T00:23:03;16.43;;;16.43;;
80115;SDS011;69423;47.608;19.366;2023-08-17T00:23:34;17.00;;;17.00;;
80115;SDS011;69423;47.608;19.366;2023-08-17T00:24:06;17.13;;;17.13;;
80115;SDS011;69423;47.608;19.366;2023-08-17T00:24:37;16.97;;;16.97;;
80115;SDS011;69423;47.608;19.366;2023-08-17T00:25:08;16.47;;;16.47;;
80115;SDS011;69423;47.608;19.366;2023-08-17T00:25:39;16.67;;;16.67;;
80115;SDS011;69423;47.608;19.366;2023-08-17T00:26:10;16.90;;;16.90;;
80115;SDS011;69423;47.608;19.366;2023-08-17T00:26:41;17.03;;;17.03;;
80115;SDS011;69423;47.608;19.366;2023-08-17T00:27:13;16.63;;;16.63;;
80115;SDS011;69423;47.608;19.366;2023-08-17T00:27:44;16.73;;;16.73;;
80115;SDS011;69423;47.608;19.366;2023-08-17T00:28:15;17.07;;;17.07;;
80115;SDS011;69423;47.608;19.366;2023-08-17T00:28:46;16.60;;;16.60;;
80115;SDS011;69423;47.608;19.366;2023-08-17T00:29:17;16.33;;;16.33;;
80115;SDS011;69423;47.608;19.366;2023-08-17T00:29:48;16.27;;;16.27;;
80115;SDS011;69423;47.608;19.366;2023-08-17T00:30:19;16.60;;;16.60;;
80115;SDS011;69423;47.608;19.366;2023-08-17T00:30:50;17.33;;;17.33;;
80115;SDS011;69423;47.608;19.366;2023-08-17T00:31:22;16.77;;;16.77;;
80115;SDS011;69423;47.608;19.366;2023-08-17T00:31:53;16.93;;;16.93;;
80115;SDS011;69423;47.608;19.366;2023-08-17T00:32:24;17.27;;;17.27;;
80115;SDS011;69423;47.608;19.366;2023-08-17T00:32:55;17.10;;;17.10;;
80115;SDS011;69423;47.608;19.366;2023-08-17T00:33:26;16.90;;;16.90;;
80115;SDS011;69423;47.608;19.366;2023-08-17T00:33:57;16.90;;;16.90;;
80115;SDS011;69423;47.608;19.366;2023-08-17T00:34:28;17.13;;;17.13;;
80115;SDS011;69423;47.608;19.366;2023-08-17T00:34:59;17.33;;;17.33;;
80115;SDS011;69423;47.608;19.366;2023-08-17T00:35:31;17.27;;;17.27;;
80115;SDS011;69423;47.608;19.366;2023-08-17T00:36:03;16.97;;;16.97;;
80115;SDS011;69423;47.608;19.366;2023-08-17T00:36:34;17.43;;;17.43;;
80115;SDS011;69423;47.608;19.366;2023-08-17T00:37:05;16.63;;;16.63;;
80115;SDS011;69423;47.608;19.366;2023-08-17T00:37:36;16.57;;;16.57;;
80115;SDS011;69423;47.608;19.366;2023-08-17T00:38:07;17.13;;;17.13;;
80115;SDS011;69423;47.608;19.366;2023-08-17T00:38:38;17.87;;;17.87;;
80115;SDS011;69423;47.608;19.366;2023-08-17T00:39:09;17.10;;;17.10;;
80115;SDS011;69423;47.608;19.366;2023-08-17T00:39:41;16.37;;;16.37;;
80115;SDS011;69423;47.608;19.366;2023-08-17T00:40:12;17.27;;;17.27;;
80115;SDS011;69423;47.608;19.366;2023-08-17T00:40:43;17.20;;;17.20;;
80115;SDS011;69423;47.608;19.366;2023-08-17T00:41:14;16.67;;;16.67;;
80115;SDS011;69423;47.608;19.366;2023-08-17T00:41:45;16.60;;;16.60;;
80115;SDS011;69423;47.608;19.366;2023-08-17T00:42:17;16.47;;;16.47;;
80115;SDS011;69423;47.608;19.366;2023-08-17T00:42:48;16.17;;;16.17;;
80115;SDS011;69423;47.608;19.366;2023-08-17T00:43:20;15.97;;;15.97;;
80115;SDS011;69423;47.608;19.366;2023-08-17T00:43:51;15.43;;;15.43;;
80115;SDS011;69423;47.608;19.366;2023-08-17T00:44:22;16.00;;;16.00;;
80115;SDS011;69423;47.608;19.366;2023-08-17T00:44:53;16.33;;;16.33;;
80115;SDS011;69423;47.608;19.366;2023-08-17T00:45:24;16.63;;;16.63;;
80115;SDS011;69423;47.608;19.366;2023-08-17T00:45:55;16.97;;;16.97;;
80115;SDS011;69423;47.608;19.366;2023-08-17T00:46:26;17.10;;;17.10;;
80115;SDS011;69423;47.608;19.366;2023-08-17T00:46:58;17.37;;;17.37;;
80115;SDS011;69423;47.608;19.366;2023-08-17T00:47:30;16.57;;;16.57;;
80115;SDS011;69423;47.608;19.366;2023-08-17T00:48:01;16.30;;;16.30;;
80115;SDS011;69423;47.608;19.366;2023-08-17T00:48:35;16.20;;;16.20;;
80115;SDS011;69423;47.608;19.366;2023-08-17T00:49:06;15.73;;;15.73;;
80115;SDS011;69423;47.608;19.366;2023-08-17T00:49:37;16.23;;;16.23;;
80115;SDS011;69423;47.608;19.366;2023-08-17T00:50:09;17.00;;;17.00;;
80115;SDS011;69423;47.608;19.366;2023-08-17T00:50:41;16.93;;;16.93;;
80115;SDS011;69423;47.608;19.366;2023-08-17T00:51:16;16.70;;;16.70;;
80115;SDS011;69423;47.608;19.366;2023-08-17T00:51:47;16.83;;;16.83;;
80115;SDS011;69423;47.608;19.366;2023-08-17T00:52:18;17.00;;;17.00;;
80115;SDS011;69423;47.608;19.366;2023-08-17T00:52:51;16.47;;;16.47;;
80115;SDS011;69423;47.608;19.366;2023-08-17T00:53:23;16.73;;;16.73;;
80115;SDS011;69423;47.608;19.366;2023-08-17T00:54:00;16.83;;;16.83;;
80115;SDS011;69423;47.608;19.366;2023-08-17T00:54:33;17.50;;;17.50;;
80115;SDS011;69423;47.608;19.366;2023-08-17T00:55:04;16.37;;;16.37;;
80115;SDS011;69423;47.608;19.366;2023-08-17T00:55:36;15.77;;;15.77;;
80115;SDS011;69423;47.608;19.366;2023-08-17T00:56:07;16.40;;;16.40;;
80115;SDS011;69423;47.608;19.366;2023-08-17T00:56:39;16.83;;;16.83;;
80115;SDS011;69423;47.608;19.366;2023-08-17T00:57:11;16.27;;;16.27;;
80115;SDS011;69423;47.608;19.366;2023-08-17T00:57:43;17.03;;;17.03;;
80115;SDS011;69423;47.608;19.366;2023-08-17T00:58:14;16.90;;;16.90;;
80115;SDS011;69423;47.608;19.366;2023-08-17T00:58:45;17.30;;;17.30;;
80115;SDS011;69423;47.608;19.366;2023-08-17T00:59:17;17.43;;;17.43;;
80115;SDS011;69423;47.608;19.366;2023-08-17T00:59:48;16.73;;;16.73;;
80115;SDS011;69423;47.608;19.366;2023-08-17T01:00:19;16.67;;;16.67;;
80115;SDS011;69423;47.608;19.366;2023-08-17T01:00:50;16.73;;;16.73;;
80115;SDS011;69423;47.608;19.366;2023-08-17T01:01:22;17.13;;;17.13;;
80115;SDS011;69423;47.608;19.366;2023-08-17T01:01:53;16.60;;;16.60;;
80115;SDS011;69423;47.608;19.366;2023-08-17T01:02:24;16.10;;;16.10;;
80115;SDS011;69423;47.608;19.366;2023-08-17T01:02:57;16.73;;;16.73;;
80115;SDS011;69423;47.608;19.366;2023-08-17T01:03:28;16.80;;;16.80;;
80115;SDS011;69423;47.608;19.366;2023-08-17T01:04:02;16.03;;;16.03;;
80115;SDS011;69423;47.608;19.366;2023-08-17T01:04:33;16.97;;;16.97;;
80115;SDS011;69423;47.608;19.366;2023-08-17T01:05:05;16.50;;;16.50;;
80115;SDS011;69423;47.608;19.366;2023-08-17T01:05:36;16.00;;;16.00;;
80115;SDS011;69423;47.608;19.366;2023-08-17T01:06:11;16.53;;;16.53;;
80115;SDS011;69423;47.608;19.366;2023-08-17T01:06:42;15.77;;;15.77;;
80115;SDS011;69423;47.608;19.366;2023-08-17T01:07:13;16.17;;;16.17;;
80115;SDS011;69423;47.608;19.366;2023-08-17T01:07:44;16.43;;;16.43;;
80115;SDS011;69423;47.608;19.366;2023-08-17T01:08:16;16.53;;;16.53;;
80115;SDS011;69423;47.608;19.366;2023-08-17T01:08:47;17.23;;;17.23;;
80115;SDS011;69423;47.608;19.366;2023-08-17T01:09:18;16.80;;;16.80;;
80115;SDS011;69423;47.608;19.366;2023-08-17T01:09:49;17.03;;;17.03;;
80115;SDS011;69423;47.608;19.366;2023-08-17T01:10:20;17.47;;;17.47;;
80115;SDS011;69423;47.608;19.366;2023-08-17T01:13:10;17.13;;;17.13;;
80115;SDS011;69423;47.608;19.366;2023-08-17T01:15:21;16.40;;;16.40;;
80115;SDS011;69423;47.608;19.366;2023-08-17T01:16:02;16.27;;;16.27;;
80115;SDS011;69423;47.608;19.366;2023-08-17T01:16:42;16.20;;;16.20;;
80115;SDS011;69423;47.608;19.366;2023-08-17T01:17:29;16.33;;;16.33;;
80115;SDS011;69423;47.608;19.366;2023-08-17T01:18:11;16.83;;;16.83;;
80115;SDS011;69423;47.608;19.366;2023-08-17T01:18:52;17.10;;;17.10;;
80115;SDS011;69423;47.608;19.366;2023-08-17T01:19:26;16.87;;;16.87;;
80115;SDS011;69423;47.608;19.366;2023-08-17T01:19:58;17.10;;;17.10;;
80115;SDS011;69423;47.608;19.366;2023-08-17T01:20:29;16.73;;;16.73;;
80115;SDS011;69423;47.608;19.366;2023-08-17T01:21:02;16.73;;;16.73;;
80115;SDS011;69423;47.608;19.366;2023-08-17T01:21:43;17.23;;;17.23;;
80115;SDS011;69423;47.608;19.366;2023-08-17T01:22:21;16.20;;;16.20;;
80115;SDS011;69423;47.608;19.366;2023-08-17T01:22:55;16.37;;;16.37;;
80115;SDS011;69423;47.608;19.366;2023-08-17T01:23:29;16.97;;;16.97;;
80115;SDS011;69423;47.608;19.366;2023-08-17T01:24:02;16.93;;;16.93;;
80115;SDS011;69423;47.608;19.366;2023-08-17T01:24:34;16.70;;;16.70;;
80115;SDS011;69423;47.608;19.366;2023-08-17T01:25:05;16.50;;;16.50;;
80115;SDS011;69423;47.608;19.366;2023-08-17T01:25:36;16.37;;;16.37;;
80115;SDS011;69423;47.608;19.366;2023-08-17T01:26:07;16.27;;;16.27;;
80115;SDS011;69423;47.608;19.366;2023-08-17T01:26:38;17.13;;;17.13;;
80115;SDS011;69423;47.608;19.366;2023-08-17T01:27:09;16.70;;;16.70;;
80115;SDS011;69423;47.608;19.366;2023-08-17T01:27:41;16.80;;;16.80;;
80115;SDS011;69423;47.608;19.366;2023-08-17T01:28:14;17.00;;;17.00;;
80115;SDS011;69423;47.608;19.366;2023-08-17T01:28:46;17.33;;;17.33;;
80115;SDS011;69423;47.608;19.366;2023-08-17T01:29:18;16.47;;;16.47;;
80115;SDS011;69423;47.608;19.366;2023-08-17T01:29:50;15.90;;;15.90;;
80115;SDS011;69423;47.608;19.366;2023-08-17T01:30:22;17.07;;;17.07;;
80115;SDS011;69423;47.608;19.366;2023-08-17T01:31:07;16.63;;;16.63;;
80115;SDS011;69423;47.608;19.366;2023-08-17T01:32:41;17.20;;;17.20;;
80115;SDS011;69423;47.608;19.366;2023-08-17T01:34:12;16.70;;;16.70;;
80115;SDS011;69423;47.608;19.366;2023-08-17T01:34:25;16.53;;;16.53;;
80115;SDS011;69423;47.608;19.366;2023-08-17T01:36:50;17.27;;;17.27;;
80115;SDS011;69423;47.608;19.366;2023-08-17T01:37:00;15.90;;;15.90;;
80115;SDS011;69423;47.608;19.366;2023-08-17T01:37:33;16.73;;;16.73;;
80115;SDS011;69423;47.608;19.366;2023-08-17T01:38:09;16.43;;;16.43;;
80115;SDS011;69423;47.608;19.366;2023-08-17T01:38:44;16.13;;;16.13;;
80115;SDS011;69423;47.608;19.366;2023-08-17T01:39:18;15.80;;;15.80;;
80115;SDS011;69423;47.608;19.366;2023-08-17T01:39:57;16.53;;;16.53;;
80115;SDS011;69423;47.608;19.366;2023-08-17T01:40:30;17.37;;;17.37;;
80115;SDS011;69423;47.608;19.366;2023-08-17T01:41:03;17.10;;;17.10;;
80115;SDS011;69423;47.608;19.366;2023-08-17T01:41:35;16.80;;;16.80;;
80115;SDS011;69423;47.608;19.366;2023-08-17T01:42:09;16.93;;;16.93;;
80115;SDS011;69423;47.608;19.366;2023-08-17T01:42:42;17.40;;;17.40;;
80115;SDS011;69423;47.608;19.366;2023-08-17T01:43:14;17.27;;;17.27;;
80115;SDS011;69423;47.608;19.366;2023-08-17T01:43:47;16.97;;;16.97;;
80115;SDS011;69423;47.608;19.366;2023-08-17T01:44:19;17.53;;;17.53;;
80115;SDS011;69423;47.608;19.366;2023-08-17T01:44:51;17.57;;;17.57;;
80115;SDS011;69423;47.608;19.366;2023-08-17T01:45:23;17.87;;;17.87;;
80115;SDS011;69423;47.608;19.366;2023-08-17T01:45:54;17.27;;;17.27;;
80115;SDS011;69423;47.608;19.366;2023-08-17T01:46:29;17.20;;;17.20;;
80115;SDS011;69423;47.608;19.366;2023-08-17T01:47:02;17.23;;;17.23;;
80115;SDS011;69423;47.608;19.366;2023-08-17T01:47:34;17.13;;;17.13;;
80115;SDS011;69423;47.608;19.366;2023-08-17T01:48:06;18.00;;;18.00;;
80115;SDS011;69423;47.608;19.366;2023-08-17T01:48:37;17.43;;;17.43;;
80115;SDS011;69423;47.608;19.366;2023-08-17T01:49:08;17.20;;;17.20;;
80115;SDS011;69423;47.608;19.366;2023-08-17T01:49:39;16.60;;;16.60;;
80115;SDS011;69423;47.608;19.366;2023-08-17T01:50:10;16.57;;;16.57;;
80115;SDS011;69423;47.608;19.366;2023-08-17T01:50:41;16.77;;;16.77;;
80115;SDS011;69423;47.608;19.366;2023-08-17T01:51:15;17.40;;;17.40;;
80115;SDS011;69423;47.608;19.366;2023-08-17T01:51:50;17.43;;;17.43;;
80115;SDS011;69423;47.608;19.366;2023-08-17T01:52:21;17.37;;;17.37;;
80115;SDS011;69423;47.608;19.366;2023-08-17T01:52:52;16.70;;;16.70;;
80115;SDS011;69423;47.608;19.366;2023-08-17T01:53:23;16.43;;;16.43;;
80115;SDS011;69423;47.608;19.366;2023-08-17T01:53:54;16.90;;;16.90;;
80115;SDS011;69423;47.608;19.366;2023-08-17T01:54:25;16.87;;;16.87;;
80115;SDS011;69423;47.608;19.366;2023-08-17T01:54:56;16.60;;;16.60;;
80115;SDS011;69423;47.608;19.366;2023-08-17T01:55:27;16.50;;;16.50;;
80115;SDS011;69423;47.608;19.366;2023-08-17T01:55:58;17.43;;;17.43;;
80115;SDS011;69423;47.608;19.366;2023-08-17T01:56:29;17.60;;;17.60;;
80115;SDS011;69423;47.608;19.366;2023-08-17T01:57:00;17.30;;;17.30;;
80115;SDS011;69423;47.608;19.366;2023-08-17T01:57:31;17.13;;;17.13;;
80115;SDS011;69423;47.608;19.366;2023-08-17T01:58:02;17.23;;;17.23;;
80115;SDS011;69423;47.608;19.366;2023-08-17T01:58:34;17.47;;;17.47;;
80115;SDS011;69423;47.608;19.366;2023-08-17T01:59:05;17.37;;;17.37;;
80115;SDS011;69423;47.608;19.366;2023-08-17T01:59:36;16.67;;;16.67;;
80115;SDS011;69423;47.608;19.366;2023-08-17T02:00:07;17.07;;;17.07;;
80115;SDS011;69423;47.608;19.366;2023-08-17T02:00:41;16.90;;;16.90;;
80115;SDS011;69423;47.608;19.366;2023-08-17T02:01:12;16.47;;;16.47;;
80115;SDS011;69423;47.608;19.366;2023-08-17T02:01:43;16.17;;;16.17;;
80115;SDS011;69423;47.608;19.366;2023-08-17T02:02:14;16.83;;;16.83;;
80115;SDS011;69423;47.608;19.366;2023-08-17T02:02:46;17.07;;;17.07;;
80115;SDS011;69423;47.608;19.366;2023-08-17T02:03:17;16.97;;;16.97;;
80115;SDS011;69423;47.608;19.366;2023-08-17T02:03:48;18.10;;;18.10;;
80115;SDS011;69423;47.608;19.366;2023-08-17T02:04:19;16.33;;;16.33;;
80115;SDS011;69423;47.608;19.366;2023-08-17T02:04:50;16.93;;;16.93;;
80115;SDS011;69423;47.608;19.366;2023-08-17T02:05:21;17.00;;;17.00;;
80115;SDS011;69423;47.608;19.366;2023-08-17T02:05:52;16.93;;;16.93;;
80115;SDS011;69423;47.608;19.366;2023-08-17T02:06:23;16.73;;;16.73;;
80115;SDS011;69423;47.608;19.366;2023-08-17T02:06:54;16.40;;;16.40;;
80115;SDS011;69423;47.608;19.366;2023-08-17T02:07:25;16.90;;;16.90;;
80115;SDS011;69423;47.608;19.366;2023-08-17T02:07:56;16.87;;;16.87;;
80115;SDS011;69423;47.608;19.366;2023-08-17T02:08:27;17.63;;;17.63;;
80115;SDS011;69423;47.608;19.366;2023-08-17T02:08:58;17.97;;;17.97;;
80115;SDS011;69423;47.608;19.366;2023-08-17T02:09:29;17.40;;;17.40;;
80115;SDS011;69423;47.608;19.366;2023-08-17T02:10:00;17.10;;;17.10;;
80115;SDS011;69423;47.608;19.366;2023-08-17T02:10:31;17.83;;;17.83;;
80115;SDS011;69423;47.608;19.366;2023-08-17T02:11:02;17.87;;;17.87;;
80115;SDS011;69423;47.608;19.366;2023-08-17T02:11:34;17.47;;;17.47;;
80115;SDS011;69423;47.608;19.366;2023-08-17T02:12:05;18.27;;;18.27;;
80115;SDS011;69423;47.608;19.366;2023-08-17T02:12:36;17.60;;;17.60;;
80115;SDS011;69423;47.608;19.366;2023-08-17T02:13:07;16.37;;;16.37;;
80115;SDS011;69423;47.608;19.366;2023-08-17T02:13:38;16.90;;;16.90;;
80115;SDS011;69423;47.608;19.366;2023-08-17T02:14:09;16.47;;;16.47;;
80115;SDS011;69423;47.608;19.366;2023-08-17T02:14:40;17.00;;;17.00;;
80115;SDS011;69423;47.608;19.366;2023-08-17T02:15:11;17.37;;;17.37;;
80115;SDS011;69423;47.608;19.366;2023-08-17T02:15:42;17.33;;;17.33;;
80115;SDS011;69423;47.608;19.366;2023-08-17T02:16:13;17.10;;;17.10;;
80115;SDS011;69423;47.608;19.366;2023-08-17T02:16:44;16.93;;;16.93;;
80115;SDS011;69423;47.608;19.366;2023-08-17T02:17:15;17.83;;;17.83;;
80115;SDS011;69423;47.608;19.366;2023-08-17T02:17:47;17.67;;;17.67;;
80115;SDS011;69423;47.608;19.366;2023-08-17T02:18:18;17.77;;;17.77;;
80115;SDS011;69423;47.608;19.366;2023-08-17T02:18:49;17.37;;;17.37;;
80115;SDS011;69423;47.608;19.366;2023-08-17T02:19:20;17.50;;;17.50;;
80115;SDS011;69423;47.608;19.366;2023-08-17T02:19:51;17.40;;;17.40;;
80115;SDS011;69423;47.608;19.366;2023-08-17T02:20:22;17.53;;;17.53;;
80115;SDS011;69423;47.608;19.366;2023-08-17T02:20:53;17.00;;;17.00;;
80115;SDS011;69423;47.608;19.366;2023-08-17T02:21:24;17.57;;;17.57;;
80115;SDS011;69423;47.608;19.366;2023-08-17T02:21:55;17.53;;;17.53;;
80115;SDS011;69423;47.608;19.366;2023-08-17T02:22:26;17.53;;;17.53;;
80115;SDS011;69423;47.608;19.366;2023-08-17T02:22:57;17.87;;;17.87;;
80115;SDS011;69423;47.608;19.366;2023-08-17T02:23:28;17.80;;;17.80;;
80115;SDS011;69423;47.608;19.366;2023-08-17T02:23:59;17.67;;;17.67;;
80115;SDS011;69423;47.608;19.366;2023-08-17T02:24:30;17.07;;;17.07;;
80115;SDS011;69423;47.608;19.366;2023-08-17T02:25:01;17.33;;;17.33;;
80115;SDS011;69423;47.608;19.366;2023-08-17T02:25:32;17.77;;;17.77;;
80115;SDS011;69423;47.608;19.366;2023-08-17T02:26:06;18.17;;;18.17;;
80115;SDS011;69423;47.608;19.366;2023-08-17T02:26:37;18.00;;;18.00;;
80115;SDS011;69423;47.608;19.366;2023-08-17T02:27:09;17.70;;;17.70;;
80115;SDS011;69423;47.608;19.366;2023-08-17T02:27:40;18.50;;;18.50;;
80115;SDS011;69423;47.608;19.366;2023-08-17T02:28:11;17.67;;;17.67;;
80115;SDS011;69423;47.608;19.366;2023-08-17T02:28:42;16.93;;;16.93;;
80115;SDS011;69423;47.608;19.366;2023-08-17T02:29:13;17.47;;;17.47;;
80115;SDS011;69423;47.608;19.366;2023-08-17T02:29:44;17.40;;;17.40;;
80115;SDS011;69423;47.608;19.366;2023-08-17T02:30:15;17.43;;;17.43;;
80115;SDS011;69423;47.608;19.366;2023-08-17T02:30:46;17.63;;;17.63;;
80115;SDS011;69423;47.608;19.366;2023-08-17T02:31:18;17.80;;;17.80;;
80115;SDS011;69423;47.608;19.366;2023-08-17T02:31:49;17.77;;;17.77;;
80115;SDS011;69423;47.608;19.366;2023-08-17T02:32:20;17.63;;;17.63;;
80115;SDS011;69423;47.608;19.366;2023-08-17T02:32:51;16.87;;;16.87;;
80115;SDS011;69423;47.608;19.366;2023-08-17T02:33:22;17.03;;;17.03;;
80115;SDS011;69423;47.608;19.366;2023-08-17T02:33:53;18.10;;;18.10;;
80115;SDS011;69423;47.608;19.366;2023-08-17T02:34:28;17.60;;;17.60;;
80115;SDS011;69423;47.608;19.366;2023-08-17T02:34:59;18.03;;;18.03;;
80115;SDS011;69423;47.608;19.366;2023-08-17T02:35:30;17.73;;;17.73;;
80115;SDS011;69423;47.608;19.366;2023-08-17T02:36:01;17.33;;;17.33;;
80115;SDS011;69423;47.608;19.366;2023-08-17T02:36:33;17.63;;;17.63;;
80115;SDS011;69423;47.608;19.366;2023-08-17T02:37:04;18.17;;;18.17;;
80115;SDS011;69423;47.608;19.366;2023-08-17T02:37:35;17.73;;;17.73;;
80115;SDS011;69423;47.608;19.366;2023-08-17T02:38:06;18.57;;;18.57;;
80115;SDS011;69423;47.608;19.366;2023-08-17T02:38:37;18.73;;;18.73;;
80115;SDS011;69423;47.608;19.366;2023-08-17T02:39:08;17.67;;;17.67;;
80115;SDS011;69423;47.608;19.366;2023-08-17T02:39:39;17.93;;;17.93;;
80115;SDS011;69423;47.608;19.366;2023-08-17T02:40:10;18.00;;;18.00;;
80115;SDS011;69423;47.608;19.366;2023-08-17T02:40:42;18.40;;;18.40;;
80115;SDS011;69423;47.608;19.366;2023-08-17T02:41:13;18.77;;;18.77;;
80115;SDS011;69423;47.608;19.366;2023-08-17T02:41:44;18.63;;;18.63;;
80115;SDS011;69423;47.608;19.366;2023-08-17T02:42:19;17.93;;;17.93;;
80115;SDS011;69423;47.608;19.366;2023-08-17T02:42:50;17.87;;;17.87;;
80115;SDS011;69423;47.608;19.366;2023-08-17T02:43:21;17.80;;;17.73;;
80115;SDS011;69423;47.608;19.366;2023-08-17T02:43:52;18.60;;;18.60;;
80115;SDS011;69423;47.608;19.366;2023-08-17T02:44:23;17.90;;;17.90;;
80115;SDS011;69423;47.608;19.366;2023-08-17T02:44:55;17.97;;;17.97;;
80115;SDS011;69423;47.608;19.366;2023-08-17T02:45:26;18.03;;;18.03;;
80115;SDS011;69423;47.608;19.366;2023-08-17T02:45:57;18.50;;;18.50;;
80115;SDS011;69423;47.608;19.366;2023-08-17T02:46:30;17.67;;;17.67;;
80115;SDS011;69423;47.608;19.366;2023-08-17T02:47:01;18.53;;;18.53;;
80115;SDS011;69423;47.608;19.366;2023-08-17T02:47:32;18.87;;;18.87;;
80115;SDS011;69423;47.608;19.366;2023-08-17T02:48:03;18.73;;;18.73;;
80115;SDS011;69423;47.608;19.366;2023-08-17T02:48:34;17.90;;;17.90;;
80115;SDS011;69423;47.608;19.366;2023-08-17T02:49:05;17.70;;;17.70;;
80115;SDS011;69423;47.608;19.366;2023-08-17T02:49:36;18.33;;;18.33;;
80115;SDS011;69423;47.608;19.366;2023-08-17T02:50:08;18.17;;;18.17;;
80115;SDS011;69423;47.608;19.366;2023-08-17T02:50:39;18.33;;;18.33;;
80115;SDS011;69423;47.608;19.366;2023-08-17T02:51:10;18.20;;;18.20;;
80115;SDS011;69423;47.608;19.366;2023-08-17T02:51:41;18.00;;;18.00;;
80115;SDS011;69423;47.608;19.366;2023-08-17T02:52:12;18.57;;;18.57;;
80115;SDS011;69423;47.608;19.366;2023-08-17T02:52:43;17.77;;;17.77;;
80115;SDS011;69423;47.608;19.366;2023-08-17T02:53:14;17.90;;;17.90;;
80115;SDS011;69423;47.608;19.366;2023-08-17T02:53:45;17.50;;;17.50;;
80115;SDS011;69423;47.608;19.366;2023-08-17T02:54:16;18.67;;;18.63;;
80115;SDS011;69423;47.608;19.366;2023-08-17T02:54:47;18.70;;;18.70;;
80115;SDS011;69423;47.608;19.366;2023-08-17T02:55:18;18.53;;;18.53;;
80115;SDS011;69423;47.608;19.366;2023-08-17T02:55:49;18.53;;;18.53;;
80115;SDS011;69423;47.608;19.366;2023-08-17T02:56:20;18.33;;;18.33;;
80115;SDS011;69423;47.608;19.366;2023-08-17T02:56:51;17.77;;;17.77;;
80115;SDS011;69423;47.608;19.366;2023-08-17T02:57:22;18.53;;;18.53;;
80115;SDS011;69423;47.608;19.366;2023-08-17T02:57:54;17.93;;;17.93;;
80115;SDS011;69423;47.608;19.366;2023-08-17T02:58:25;18.40;;;18.40;;
80115;SDS011;69423;47.608;19.366;2023-08-17T02:58:56;19.17;;;19.17;;
80115;SDS011;69423;47.608;19.366;2023-08-17T02:59:27;19.20;;;19.20;;
80115;SDS011;69423;47.608;19.366;2023-08-17T02:59:59;18.90;;;18.90;;
80115;SDS011;69423;47.608;19.366;2023-08-17T03:00:30;19.17;;;19.17;;
80115;SDS011;69423;47.608;19.366;2023-08-17T03:01:02;18.83;;;18.83;;
80115;SDS011;69423;47.608;19.366;2023-08-17T03:01:33;18.60;;;18.60;;
80115;SDS011;69423;47.608;19.366;2023-08-17T03:02:04;18.73;;;18.73;;
80115;SDS011;69423;47.608;19.366;2023-08-17T03:02:35;18.27;;;18.27;;
80115;SDS011;69423;47.608;19.366;2023-08-17T03:03:06;18.77;;;18.77;;
80115;SDS011;69423;47.608;19.366;2023-08-17T03:03:37;18.37;;;18.37;;
80115;SDS011;69423;47.608;19.366;2023-08-17T03:04:08;18.23;;;18.23;;
80115;SDS011;69423;47.608;19.366;2023-08-17T03:04:39;17.93;;;17.93;;
80115;SDS011;69423;47.608;19.366;2023-08-17T03:05:11;18.50;;;18.50;;
80115;SDS011;69423;47.608;19.366;2023-08-17T03:05:42;17.93;;;17.93;;
80115;SDS011;69423;47.608;19.366;2023-08-17T03:06:13;18.60;;;18.60;;
80115;SDS011;69423;47.608;19.366;2023-08-17T03:06:44;18.23;;;18.23;;
80115;SDS011;69423;47.608;19.366;2023-08-17T03:07:15;19.17;;;19.17;;
80115;SDS011;69423;47.608;19.366;2023-08-17T03:07:46;18.53;;;18.53;;
80115;SDS011;69423;47.608;19.366;2023-08-17T03:08:17;18.93;;;18.93;;
80115;SDS011;69423;47.608;19.366;2023-08-17T03:08:48;18.20;;;18.20;;
80115;SDS011;69423;47.608;19.366;2023-08-17T03:09:19;18.13;;;18.13;;
80115;SDS011;69423;47.608;19.366;2023-08-17T03:09:50;17.37;;;17.37;;